createdAt,value
2023-03-18T00:00:19.150Z,5.95
2023-03-18T00:02:48.002Z,5.22
2023-03-18T00:05:15.982Z,6.68
2023-03-18T00:07:43.173Z,8.05
2023-03-18T00:10:12.110Z,8.00
2023-03-18T00:12:40.561Z,6.05
2023-03-18T00:15:10.003Z,6.00
2023-03-18T00:17:38.002Z,6.28
2023-03-18T00:20:07.072Z,6.72
2023-03-18T00:22:35.975Z,8.02
2023-03-18T00:25:05.353Z,8.57
2023-03-18T00:27:33.727Z,4.28
2023-03-18T00:30:02.073Z,6.07
2023-03-18T00:32:29.467Z,7.97
2023-03-18T00:34:57.033Z,6.38
2023-03-18T00:37:31.895Z,3.75
2023-03-18T00:40:06.242Z,5.63
2023-03-18T00:42:39.194Z,4.70
2023-03-18T00:45:08.932Z,7.25
2023-03-18T00:47:38.585Z,5.85
2023-03-18T00:50:08.569Z,7.97
2023-03-18T00:52:36.442Z,7.35
2023-03-18T00:55:04.230Z,8.88
2023-03-18T00:57:31.806Z,11.00
2023-03-18T00:59:59.501Z,8.68
2023-03-18T01:02:29.835Z,7.72
2023-03-18T01:04:58.064Z,7.45
2023-03-18T01:07:25.693Z,5.50
2023-03-18T01:09:52.984Z,6.43
2023-03-18T01:12:20.640Z,10.45
2023-03-18T01:14:48.221Z,8.05
2023-03-18T01:17:15.629Z,6.53
2023-03-18T01:19:43.552Z,6.40
2023-03-18T01:22:11.076Z,5.72
2023-03-18T01:24:45.137Z,7.22
2023-03-18T01:27:13.937Z,6.72
2023-03-18T01:29:43.148Z,4.15
2023-03-18T01:32:16.434Z,4.90
2023-03-18T01:34:44.309Z,6.20
2023-03-18T01:37:11.776Z,6.85
2023-03-18T01:39:41.569Z,7.18
2023-03-18T01:42:18.209Z,7.82
2023-03-18T01:44:46.377Z,4.28
2023-03-18T01:47:17.464Z,10.60
2023-03-18T01:49:52.434Z,3.95
2023-03-18T01:52:25.265Z,7.07
2023-03-18T01:55:06.274Z,5.38
2023-03-18T01:57:35.024Z,7.50
2023-03-18T02:00:04.690Z,4.47
2023-03-18T02:02:43.332Z,7.22
2023-03-18T02:05:13.914Z,5.55
2023-03-18T02:07:42.912Z,7.80
2023-03-18T02:10:19.291Z,8.23
2023-03-18T02:12:51.047Z,4.50
2023-03-18T02:15:27.566Z,8.43
2023-03-18T02:18:08.953Z,6.97
2023-03-18T02:20:52.786Z,7.22
2023-03-18T02:23:57.093Z,8.32
2023-03-18T02:26:48.284Z,8.65
2023-03-18T02:29:19.473Z,7.65
2023-03-18T02:31:56.315Z,9.68
2023-03-18T02:34:28.463Z,7.57
2023-03-18T02:36:57.815Z,5.13
2023-03-18T02:39:25.906Z,11.40
2023-03-18T02:41:55.842Z,6.55
2023-03-18T02:44:23.520Z,6.50
2023-03-18T02:47:17.189Z,8.00
2023-03-18T02:49:44.666Z,10.18
2023-03-18T02:52:13.351Z,8.45
2023-03-18T02:54:41.163Z,7.05
2023-03-18T02:57:08.995Z,10.25
2023-03-18T02:59:37.209Z,10.60
2023-03-18T03:02:04.396Z,6.72
2023-03-18T03:04:32.074Z,14.77
2023-03-18T03:07:01.476Z,11.30
2023-03-18T03:09:43.271Z,7.47
2023-03-18T03:12:10.520Z,11.77
2023-03-18T03:14:43.637Z,9.65
2023-03-18T03:17:10.924Z,11.77
2023-03-18T03:19:38.419Z,9.45
2023-03-18T03:22:07.095Z,9.10
2023-03-18T03:24:34.258Z,7.80
2023-03-18T03:27:01.644Z,11.45
2023-03-18T03:29:29.365Z,6.20
2023-03-18T03:31:56.515Z,12.48
2023-03-18T03:34:25.002Z,5.65
2023-03-18T03:36:52.129Z,8.35
2023-03-18T03:39:19.329Z,8.75
2023-03-18T03:41:46.416Z,6.55
2023-03-18T03:44:16.881Z,7.25
2023-03-18T03:46:49.176Z,7.18
2023-03-18T03:49:16.860Z,8.73
2023-03-18T03:51:44.153Z,8.02
2023-03-18T03:54:13.299Z,7.72
2023-03-18T03:56:41.031Z,5.78
2023-03-18T03:59:10.248Z,5.43
2023-03-18T04:01:59.802Z,6.57
2023-03-18T04:04:27.899Z,5.13
2023-03-18T04:06:56.113Z,7.35
2023-03-18T04:09:23.887Z,5.35
2023-03-18T04:11:51.011Z,6.57
2023-03-18T04:14:18.321Z,8.52
2023-03-18T04:16:45.685Z,7.13
2023-03-18T04:19:12.949Z,6.00
2023-03-18T04:21:40.068Z,8.85
2023-03-18T04:24:07.571Z,9.00
2023-03-18T04:26:35.020Z,7.70
2023-03-18T04:29:04.885Z,6.03
2023-03-18T04:31:32.271Z,6.88
2023-03-18T04:34:00.985Z,9.00
2023-03-18T04:36:28.524Z,8.88
2023-03-18T04:38:57.081Z,7.88
2023-03-18T04:41:25.302Z,10.02
2023-03-18T04:43:54.600Z,7.95
2023-03-18T04:46:23.405Z,6.88
2023-03-18T04:48:51.488Z,10.23
2023-03-18T04:51:18.885Z,8.63
2023-03-18T04:53:46.818Z,7.47
2023-03-18T04:56:14.427Z,7.07
2023-03-18T04:58:49.667Z,5.78
2023-03-18T05:01:22.118Z,6.53
2023-03-18T05:03:50.319Z,8.15
2023-03-18T05:06:27.563Z,7.13
2023-03-18T05:08:58.941Z,6.03
2023-03-18T05:11:29.184Z,7.72
2023-03-18T05:13:59.313Z,8.35
2023-03-18T05:16:27.169Z,8.52
2023-03-18T05:18:54.261Z,6.40
2023-03-18T05:21:21.577Z,6.90
2023-03-18T05:23:49.200Z,6.57
2023-03-18T05:26:17.226Z,7.00
2023-03-18T05:28:47.008Z,7.65
2023-03-18T05:31:27.316Z,9.60
2023-03-18T05:33:54.596Z,6.47
2023-03-18T05:36:23.416Z,6.43
2023-03-18T05:38:57.717Z,6.35
2023-03-18T05:41:25.790Z,6.35
2023-03-18T05:43:53.557Z,7.28
2023-03-18T05:46:21.286Z,6.50
2023-03-18T05:48:57.998Z,8.02
2023-03-18T05:51:30.242Z,7.22
2023-03-18T05:53:57.395Z,8.35
2023-03-18T05:56:28.839Z,11.03
2023-03-18T05:58:59.327Z,6.65
2023-03-18T06:01:53.982Z,8.10
2023-03-18T06:04:22.354Z,9.95
2023-03-18T06:06:50.699Z,13.20
2023-03-18T06:09:19.211Z,9.60
2023-03-18T06:11:47.314Z,10.48
2023-03-18T06:14:14.682Z,7.93
2023-03-18T06:16:42.403Z,6.75
2023-03-18T06:19:12.239Z,8.73
2023-03-18T06:21:40.394Z,11.15
2023-03-18T06:24:08.555Z,6.60
2023-03-18T06:26:36.420Z,7.95
2023-03-18T06:29:05.400Z,7.85
2023-03-18T06:31:32.960Z,9.40
2023-03-18T06:34:01.560Z,9.60
2023-03-18T06:36:34.474Z,6.18
2023-03-18T06:39:04.312Z,8.57
2023-03-18T06:41:32.747Z,7.45
2023-03-18T06:44:21.081Z,7.75
2023-03-18T06:46:48.356Z,7.65
2023-03-18T06:49:16.683Z,5.78
2023-03-18T06:51:51.084Z,6.90
2023-03-18T06:54:18.627Z,8.07
2023-03-18T06:56:46.860Z,6.07
2023-03-18T06:59:19.289Z,6.22
2023-03-18T07:01:46.760Z,3.35
2023-03-18T07:04:16.730Z,8.43
2023-03-18T07:06:43.891Z,3.95
2023-03-18T07:09:11.210Z,5.28
2023-03-18T07:11:38.510Z,4.88
2023-03-18T07:14:11.122Z,4.07
2023-03-18T07:16:39.166Z,6.15
2023-03-18T07:19:07.392Z,7.10
2023-03-18T07:21:35.426Z,4.45
2023-03-18T07:24:04.093Z,3.63
2023-03-18T07:26:31.917Z,7.18
2023-03-18T07:28:59.333Z,4.25
2023-03-18T07:31:26.958Z,5.60
2023-03-18T07:33:54.082Z,5.03
2023-03-18T07:36:21.400Z,8.02
2023-03-18T07:38:48.557Z,6.43
2023-03-18T07:41:15.719Z,5.25
2023-03-18T07:43:43.643Z,4.05
2023-03-18T07:46:10.878Z,8.00
2023-03-18T07:48:38.023Z,6.63
2023-03-18T07:51:05.585Z,4.25
2023-03-18T07:53:33.807Z,4.80
2023-03-18T07:56:01.704Z,6.05
2023-03-18T07:58:28.989Z,6.95
2023-03-18T08:00:56.852Z,5.85
2023-03-18T08:03:24.043Z,5.30
2023-03-18T08:05:51.521Z,3.30
2023-03-18T08:08:18.851Z,4.22
2023-03-18T08:10:46.369Z,3.35
2023-03-18T08:13:13.770Z,4.15
2023-03-18T08:15:41.525Z,2.08
2023-03-18T08:18:09.742Z,2.40
2023-03-18T08:20:36.877Z,1.80
2023-03-18T08:23:04.075Z,3.55
2023-03-18T08:25:31.776Z,4.20
2023-03-18T08:27:59.750Z,4.43
2023-03-18T08:30:28.859Z,1.73
2023-03-18T08:32:57.470Z,3.55
2023-03-18T08:35:24.668Z,2.10
2023-03-18T08:37:51.883Z,2.22
2023-03-18T08:40:20.341Z,2.20
2023-03-18T08:42:48.226Z,0.88
2023-03-18T08:45:16.244Z,1.67
2023-03-18T08:47:43.670Z,2.15
2023-03-18T08:50:12.258Z,1.95
2023-03-18T08:52:41.321Z,1.65
2023-03-18T08:55:09.843Z,1.50
2023-03-18T08:57:38.019Z,2.75
2023-03-18T09:00:06.230Z,1.75
2023-03-18T09:02:33.895Z,1.92
2023-03-18T09:05:01.165Z,4.30
2023-03-18T09:07:28.756Z,1.65
2023-03-18T09:09:56.050Z,1.02
2023-03-18T09:12:23.363Z,1.42
2023-03-18T09:14:50.730Z,2.67
2023-03-18T09:17:17.867Z,2.67
2023-03-18T09:19:45.413Z,1.33
2023-03-18T09:22:12.744Z,0.82
2023-03-18T09:24:40.850Z,2.22
2023-03-18T09:27:08.013Z,1.00
2023-03-18T09:29:35.267Z,5.13
2023-03-18T09:32:02.511Z,2.38
2023-03-18T09:34:29.639Z,0.98
2023-03-18T09:36:58.394Z,2.05
2023-03-18T09:39:26.024Z,1.65
2023-03-18T09:42:02.983Z,3.22
2023-03-18T09:44:33.655Z,2.13
2023-03-18T09:47:01.222Z,1.77
2023-03-18T09:49:44.029Z,2.33
2023-03-18T09:52:27.955Z,1.02
2023-03-18T09:55:18.055Z,1.13
2023-03-18T09:57:48.287Z,2.28
2023-03-18T10:00:34.195Z,1.00
2023-03-18T10:03:23.656Z,4.40
2023-03-18T10:06:18.171Z,1.60
2023-03-18T10:09:04.065Z,2.80
2023-03-18T10:11:36.235Z,1.35
2023-03-18T10:14:15.329Z,3.75
2023-03-18T10:17:09.416Z,2.10
2023-03-18T10:19:37.870Z,1.52
2023-03-18T10:22:22.172Z,1.20
2023-03-18T10:24:59.795Z,1.35
2023-03-18T10:27:38.365Z,2.92
2023-03-18T10:30:29.708Z,1.17
2023-03-18T10:32:56.926Z,1.80
2023-03-18T10:35:41.496Z,1.20
2023-03-18T10:38:23.992Z,2.45
2023-03-18T10:43:23.321Z,3.00
2023-03-18T10:46:00.873Z,1.05
2023-03-18T10:48:33.543Z,0.57
2023-03-18T10:51:12.690Z,1.55
2023-03-18T10:53:53.999Z,0.73
2023-03-18T10:56:22.264Z,0.63
2023-03-18T10:58:51.967Z,2.42
2023-03-18T11:01:23.351Z,1.88
2023-03-18T11:04:03.373Z,1.75
2023-03-18T11:06:47.681Z,0.90
2023-03-18T11:09:22.128Z,1.15
2023-03-18T11:11:58.396Z,0.77
2023-03-18T11:14:30.440Z,1.95
2023-03-18T11:17:00.348Z,1.35
2023-03-18T11:19:33.519Z,0.60
2023-03-18T11:22:15.303Z,1.25
2023-03-18T11:24:42.922Z,1.20
2023-03-18T11:27:16.165Z,1.00
2023-03-18T11:29:54.495Z,1.70
2023-03-18T11:32:34.516Z,1.08
2023-03-18T11:35:04.547Z,0.30
2023-03-18T11:37:35.906Z,0.52
2023-03-18T11:40:13.587Z,0.93
2023-03-18T11:42:42.487Z,2.05
2023-03-18T11:45:34.322Z,1.58
2023-03-18T11:48:02.978Z,0.90
2023-03-18T11:50:44.976Z,1.45
2023-03-18T11:53:34.660Z,1.10
2023-03-18T11:56:14.993Z,0.70
2023-03-18T11:58:55.510Z,0.38
2023-03-18T12:01:35.025Z,0.30
2023-03-18T12:04:23.502Z,0.20
2023-03-18T12:07:17.369Z,0.90
2023-03-18T12:10:26.319Z,0.55
2023-03-18T12:13:08.337Z,0.63
2023-03-18T12:15:42.798Z,0.98
2023-03-18T12:18:30.257Z,0.77
2023-03-18T12:21:06.853Z,0.30
2023-03-18T12:23:55.587Z,2.47
2023-03-18T12:26:49.683Z,0.55
2023-03-18T12:29:35.476Z,2.92
2023-03-18T12:32:34.640Z,1.25
2023-03-18T12:35:29.262Z,0.40
2023-03-18T12:38:24.389Z,2.53
2023-03-18T12:41:17.959Z,0.60
2023-03-18T12:44:33.592Z,0.43
2023-03-18T12:47:11.024Z,2.05
2023-03-18T12:49:43.709Z,1.45
2023-03-18T12:52:30.228Z,1.95
2023-03-18T12:55:07.580Z,1.65
2023-03-18T12:57:54.608Z,1.00
2023-03-18T13:00:32.755Z,1.02
2023-03-18T13:03:08.951Z,0.85
2023-03-18T13:06:08.758Z,2.58
2023-03-18T13:08:52.271Z,0.50
2023-03-18T13:11:19.396Z,1.30
2023-03-18T13:13:52.367Z,2.55
2023-03-18T13:16:21.813Z,2.85
2023-03-18T13:18:52.291Z,1.45
2023-03-18T13:21:23.516Z,0.85
2023-03-18T13:24:00.394Z,2.88
2023-03-18T13:26:39.525Z,0.80
2023-03-18T13:29:18.730Z,1.02
2023-03-18T13:31:45.934Z,1.73
2023-03-18T13:34:36.111Z,1.30
2023-03-18T13:37:50.698Z,1.60
2023-03-18T13:40:54.087Z,1.65
2023-03-18T13:43:24.254Z,2.00
2023-03-18T13:45:53.603Z,1.95
2023-03-18T13:48:32.039Z,1.02
2023-03-18T13:51:13.808Z,2.67
2023-03-18T13:53:44.037Z,1.10
2023-03-18T13:56:44.566Z,2.53
2023-03-18T13:59:33.728Z,1.30
2023-03-18T14:02:29.417Z,1.15
2023-03-18T14:05:00.022Z,0.60
2023-03-18T14:07:28.642Z,1.40
2023-03-18T14:10:22.564Z,1.75
2023-03-18T14:12:50.297Z,1.90
2023-03-18T14:15:36.551Z,3.30
2023-03-18T14:18:04.365Z,1.73
2023-03-18T14:20:42.488Z,1.02
2023-03-18T14:23:19.843Z,1.58
2023-03-18T14:25:54.654Z,1.13
2023-03-18T14:28:25.669Z,1.13
2023-03-18T14:31:11.995Z,1.45
2023-03-18T14:34:17.324Z,1.23
2023-03-18T14:36:53.695Z,1.05
2023-03-18T14:39:26.456Z,1.10
2023-03-18T14:41:57.114Z,1.35
2023-03-18T14:44:34.301Z,0.82
2023-03-18T14:47:14.157Z,1.98
2023-03-18T14:50:04.441Z,1.48
2023-03-18T14:52:42.048Z,1.63
2023-03-18T14:55:21.554Z,0.70
2023-03-18T14:57:48.864Z,3.60
2023-03-18T15:00:17.762Z,2.03
2023-03-18T15:02:45.866Z,2.80
2023-03-18T15:05:18.950Z,1.23
2023-03-18T15:07:52.785Z,1.42
2023-03-18T15:10:24.649Z,2.97
2023-03-18T15:13:11.139Z,1.08
2023-03-18T15:15:39.356Z,0.80
2023-03-18T15:18:26.754Z,1.98
2023-03-18T15:21:01.919Z,1.65
2023-03-18T15:23:39.126Z,0.82
2023-03-18T15:26:37.452Z,1.40
2023-03-18T15:29:24.458Z,0.95
2023-03-18T15:31:53.079Z,0.52
2023-03-18T15:34:27.873Z,2.20
2023-03-18T15:37:01.080Z,3.85
2023-03-18T15:39:36.861Z,1.02
2023-03-18T15:42:13.246Z,0.57
2023-03-18T15:44:41.486Z,0.82
2023-03-18T15:47:14.661Z,0.98
2023-03-18T15:49:55.675Z,2.00
2023-03-18T15:52:27.210Z,0.90
2023-03-18T15:54:54.391Z,2.38
2023-03-18T15:57:32.151Z,1.20
2023-03-18T16:00:00.283Z,0.60
2023-03-18T16:02:29.976Z,1.20
2023-03-18T16:05:17.635Z,0.65
2023-03-18T16:07:46.005Z,1.15
2023-03-18T16:10:18.714Z,2.22
2023-03-18T16:12:48.042Z,0.52
2023-03-18T16:15:22.266Z,1.50
2023-03-18T16:17:50.332Z,0.50
2023-03-18T16:20:28.379Z,1.45
2023-03-18T16:22:56.697Z,0.60
2023-03-18T16:25:25.262Z,0.93
2023-03-18T16:27:56.230Z,1.20
2023-03-18T16:30:29.729Z,0.82
2023-03-18T16:32:58.377Z,1.02
2023-03-18T16:35:30.926Z,2.22
2023-03-18T16:38:00.754Z,2.42
2023-03-18T16:40:29.988Z,1.13
2023-03-18T16:42:57.992Z,1.17
2023-03-18T16:45:30.336Z,2.05
2023-03-18T16:48:07.713Z,1.58
2023-03-18T16:50:40.599Z,1.42
2023-03-18T16:53:23.640Z,0.70
2023-03-18T16:56:16.614Z,2.10
2023-03-18T16:58:44.773Z,1.27
2023-03-18T17:01:16.542Z,1.33
2023-03-18T17:03:44.320Z,1.48
2023-03-18T17:06:13.339Z,2.15
2023-03-18T17:08:42.626Z,3.13
2023-03-18T17:11:18.201Z,1.88
2023-03-18T17:13:45.853Z,1.80
2023-03-18T17:16:22.590Z,1.80
2023-03-18T17:18:49.990Z,2.22
2023-03-18T17:21:17.417Z,2.70
2023-03-18T17:23:45.684Z,2.70
2023-03-18T17:26:15.875Z,2.85
2023-03-18T17:28:46.556Z,2.80
2023-03-18T17:31:14.142Z,3.00
2023-03-18T17:33:41.959Z,2.13
2023-03-18T17:36:09.854Z,1.92
2023-03-18T17:38:37.393Z,1.70
2023-03-18T17:41:14.063Z,2.10
2023-03-18T17:43:42.111Z,2.53
2023-03-18T17:46:09.888Z,2.63
2023-03-18T17:48:38.807Z,2.97
2023-03-18T17:51:16.446Z,3.80
2023-03-18T17:53:59.192Z,3.28
2023-03-18T17:56:27.992Z,5.95
2023-03-18T17:58:55.632Z,4.03
2023-03-18T18:01:30.251Z,4.80
2023-03-18T18:03:59.372Z,3.70
2023-03-18T18:06:31.260Z,2.70
2023-03-18T18:09:00.461Z,4.75
2023-03-18T18:11:35.343Z,3.50
2023-03-18T18:14:13.337Z,3.72
2023-03-18T18:16:40.721Z,3.42
2023-03-18T18:19:10.763Z,2.75
2023-03-18T18:21:38.200Z,4.38
2023-03-18T18:24:18.759Z,5.55
2023-03-18T18:26:45.855Z,2.72
2023-03-18T18:29:16.862Z,8.55
2023-03-18T18:31:44.086Z,3.83
2023-03-18T18:34:12.336Z,4.70
2023-03-18T18:36:39.769Z,7.95
2023-03-18T18:39:07.574Z,6.32
2023-03-18T18:41:34.968Z,16.52
2023-03-18T18:44:02.581Z,8.52
2023-03-18T18:46:31.010Z,11.35
2023-03-18T18:48:58.475Z,6.80
2023-03-18T18:51:25.963Z,5.28
2023-03-18T18:53:54.284Z,4.53
2023-03-18T18:56:34.255Z,5.47
2023-03-18T18:59:05.236Z,3.25
2023-03-18T19:01:32.357Z,4.20
2023-03-18T19:03:59.533Z,5.03
2023-03-18T19:06:31.500Z,4.93
2023-03-18T19:09:00.925Z,3.50
2023-03-18T19:11:29.101Z,7.88
2023-03-18T19:14:15.061Z,8.02
2023-03-18T19:16:42.591Z,7.00
2023-03-18T19:19:19.306Z,6.78
2023-03-18T19:21:47.149Z,6.68
2023-03-18T19:24:36.955Z,10.10
2023-03-18T19:27:07.138Z,5.15
2023-03-18T19:29:34.396Z,4.75
2023-03-18T19:32:01.796Z,6.72
2023-03-18T19:34:32.171Z,7.25
2023-03-18T19:37:02.806Z,4.93
2023-03-18T19:39:30.202Z,6.05
2023-03-18T19:41:57.415Z,6.47
2023-03-18T19:44:26.652Z,6.38
2023-03-18T19:46:56.184Z,7.25
2023-03-18T19:49:33.775Z,4.85
2023-03-18T19:52:02.657Z,5.03
2023-03-18T19:54:36.894Z,6.18
2023-03-18T19:57:23.769Z,3.53
2023-03-18T19:59:52.672Z,6.32
2023-03-18T20:02:25.129Z,9.32
2023-03-18T20:04:55.367Z,4.53
2023-03-18T20:07:24.586Z,7.75
2023-03-18T20:09:52.536Z,4.88
2023-03-18T20:12:35.104Z,7.78
2023-03-18T20:15:06.494Z,4.00
2023-03-18T20:17:39.655Z,7.30
2023-03-18T20:20:28.624Z,14.85
2023-03-18T20:23:01.909Z,11.77
2023-03-18T20:25:37.174Z,12.23
2023-03-18T20:28:05.182Z,13.15
2023-03-18T20:30:35.452Z,8.77
2023-03-18T20:33:05.803Z,9.90
2023-03-18T20:35:39.743Z,8.50
2023-03-18T20:38:25.576Z,8.40
2023-03-18T20:40:53.028Z,10.52
2023-03-18T20:43:22.805Z,8.32
2023-03-18T20:45:52.514Z,7.43
2023-03-18T20:48:20.743Z,7.28
2023-03-18T20:50:48.022Z,7.78
2023-03-18T20:53:21.903Z,14.18
2023-03-18T20:55:50.012Z,12.60
2023-03-18T20:58:19.646Z,13.02
2023-03-18T21:00:47.326Z,13.48
2023-03-18T21:03:23.729Z,9.25
2023-03-18T21:05:52.768Z,12.15
2023-03-18T21:08:19.990Z,12.77
2023-03-18T21:10:47.316Z,10.82
2023-03-18T21:13:27.113Z,10.38
2023-03-18T21:15:55.668Z,9.73
2023-03-18T21:18:22.944Z,8.38
2023-03-18T21:20:50.735Z,6.47
2023-03-18T21:23:26.854Z,11.75
2023-03-18T21:25:54.771Z,11.93
2023-03-18T21:28:23.737Z,10.20
2023-03-18T21:30:52.890Z,8.40
2023-03-18T21:33:33.503Z,10.13
2023-03-18T21:36:01.874Z,12.27
2023-03-18T21:38:35.005Z,10.05
2023-03-18T21:41:02.811Z,5.18
2023-03-18T21:43:35.249Z,8.35
2023-03-18T21:46:04.781Z,9.68
2023-03-18T21:48:32.408Z,8.48
2023-03-18T21:50:59.845Z,6.13
2023-03-18T21:53:28.332Z,5.15
2023-03-18T21:55:55.557Z,8.23
2023-03-18T21:58:24.868Z,20.10
2023-03-18T22:00:54.663Z,16.27
2023-03-18T22:03:24.053Z,12.75
2023-03-18T22:05:52.663Z,11.85
2023-03-18T22:08:20.679Z,12.13
2023-03-18T22:10:49.677Z,10.27
2023-03-18T22:13:21.288Z,58.35
2023-03-18T22:15:57.119Z,39.40
2023-03-18T22:18:24.633Z,38.78
2023-03-18T22:20:52.092Z,19.30
2023-03-18T22:23:23.399Z,31.55
2023-03-18T22:25:53.086Z,22.33
2023-03-18T22:28:20.786Z,14.77
2023-03-18T22:30:55.108Z,16.90
2023-03-18T22:33:26.565Z,18.85
2023-03-18T22:35:54.015Z,14.17
2023-03-18T22:38:23.454Z,37.33
2023-03-18T22:40:53.317Z,13.43
2023-03-18T22:43:33.535Z,24.05
2023-03-18T22:46:03.112Z,17.88
2023-03-18T22:48:30.440Z,20.20
2023-03-18T22:50:59.485Z,9.00
2023-03-18T22:53:30.276Z,7.70
2023-03-18T22:55:58.150Z,6.25
2023-03-18T22:58:27.487Z,3.70
2023-03-18T23:00:55.991Z,4.88
2023-03-18T23:03:28.726Z,3.55
2023-03-18T23:05:57.653Z,4.45
2023-03-18T23:08:25.172Z,5.05
2023-03-18T23:10:54.177Z,6.80
2023-03-18T23:13:35.774Z,2.88
2023-03-18T23:16:06.388Z,5.80
2023-03-18T23:18:33.904Z,3.58
2023-03-18T23:21:01.796Z,5.80
2023-03-18T23:23:30.394Z,3.15
2023-03-18T23:25:57.920Z,4.47
2023-03-18T23:28:25.138Z,3.10
2023-03-18T23:30:53.303Z,3.95
2023-03-18T23:33:20.611Z,3.47
2023-03-18T23:35:48.904Z,9.43
2023-03-18T23:38:16.206Z,3.58
2023-03-18T23:40:43.550Z,4.97
2023-03-18T23:43:11.245Z,3.35
2023-03-18T23:45:39.129Z,3.17
2023-03-18T23:48:07.187Z,3.30
2023-03-18T23:50:34.616Z,4.07
2023-03-18T23:53:01.918Z,3.83
2023-03-18T23:55:36.138Z,3.45
2023-03-18T23:58:04.184Z,5.05
